Pisek, Czech Republic
Current Conditions -  °F | °C
As of 9:00 PM on Friday 21 Nov 2014 (Local Time) from LKLN Reporting Station
Overcast Overcast  
Wind Chill: 41°   Ceiling: 2900
Heat Index: 41°   Visibility: 6mi
Dew Point: 37°   Wind: 2mph
Humidity: 87%   Direction: 60°ENE
Pressure: 30.21"   Gusts: NA
Location:  49.31°N, 14.14°E
Report Text: LKLN 211900Z AUTO 06002KT 9999 OVC029 05/03 Q1023
Loading
Personal Weather Stations






























Interactive Weather Map New forecast layout! Learn more

10-Day Weather Forecast

Advertisements
Track Severe Weather on mobile